createdAt,value
2022-12-31T00:01:25.814Z,7.63
2022-12-31T00:03:52.867Z,8.48
2022-12-31T00:06:23.844Z,7.85
2022-12-31T00:08:51.858Z,7.68
2022-12-31T00:11:18.777Z,7.57
2022-12-31T00:13:46.768Z,9.88
2022-12-31T00:16:19.841Z,9.18
2022-12-31T00:18:48.499Z,8.93
2022-12-31T00:21:16.174Z,10.27
2022-12-31T00:23:43.359Z,10.63
2022-12-31T00:26:12.382Z,9.52
2022-12-31T00:28:39.650Z,10.73
2022-12-31T00:31:12.621Z,8.38
2022-12-31T00:33:40.205Z,10.45
2022-12-31T00:36:13.229Z,7.05
2022-12-31T00:38:41.315Z,9.00
2022-12-31T00:41:08.138Z,10.20
2022-12-31T00:43:35.436Z,7.03
2022-12-31T00:46:02.859Z,8.27
2022-12-31T00:48:29.505Z,6.30
2022-12-31T00:50:56.876Z,7.30
2022-12-31T00:53:25.579Z,7.93
2022-12-31T00:55:52.170Z,8.38
2022-12-31T00:58:18.841Z,10.52
2022-12-31T01:00:45.493Z,7.95
2022-12-31T01:03:12.190Z,8.98
2022-12-31T01:05:38.783Z,9.05
2022-12-31T01:08:06.075Z,10.13
2022-12-31T01:10:50.958Z,7.20
2022-12-31T01:13:17.750Z,6.63
2022-12-31T01:15:44.501Z,5.78
2022-12-31T01:18:11.610Z,10.07
2022-12-31T01:20:41.355Z,6.50
2022-12-31T01:23:09.041Z,6.80
2022-12-31T01:25:40.169Z,7.88
2022-12-31T01:28:06.760Z,8.70
2022-12-31T01:30:33.271Z,4.72
2022-12-31T01:33:00.181Z,7.80
2022-12-31T01:35:26.730Z,8.07
2022-12-31T01:37:53.240Z,8.18
2022-12-31T01:40:19.976Z,7.63
2022-12-31T01:42:54.446Z,8.25
2022-12-31T01:45:21.231Z,7.60
2022-12-31T01:47:51.735Z,6.63
2022-12-31T01:50:23.242Z,10.77
2022-12-31T01:52:56.887Z,7.43
2022-12-31T01:55:26.118Z,8.45
2022-12-31T01:58:01.379Z,8.30
2022-12-31T02:03:19.602Z,8.25
2022-12-31T02:05:55.028Z,9.07
2022-12-31T02:08:21.998Z,7.35
2022-12-31T02:10:48.528Z,11.13
2022-12-31T02:13:15.705Z,6.97
2022-12-31T02:16:09.579Z,7.22
2022-12-31T02:18:50.386Z,6.55
2022-12-31T02:21:33.518Z,8.13
2022-12-31T02:24:35.818Z,6.35
2022-12-31T02:27:34.346Z,7.63
2022-12-31T02:30:17.201Z,9.80
2022-12-31T02:33:22.227Z,7.45
2022-12-31T02:36:24.071Z,5.47
2022-12-31T02:38:51.712Z,4.90
2022-12-31T02:41:38.968Z,9.27
2022-12-31T02:44:22.486Z,7.20
2022-12-31T02:47:13.501Z,6.68
2022-12-31T02:50:23.058Z,6.78
2022-12-31T02:53:14.383Z,7.28
2022-12-31T02:55:52.425Z,7.80
2022-12-31T02:58:56.823Z,8.60
2022-12-31T03:01:52.280Z,9.40
2022-12-31T03:04:32.707Z,9.30
2022-12-31T03:07:12.527Z,6.82
2022-12-31T03:09:39.342Z,8.00
2022-12-31T03:12:28.451Z,8.60
2022-12-31T03:14:55.065Z,8.07
2022-12-31T03:17:21.811Z,8.27
2022-12-31T03:20:06.921Z,9.65
2022-12-31T03:22:37.497Z,9.57
2022-12-31T03:25:29.259Z,7.95
2022-12-31T03:27:56.057Z,7.15
2022-12-31T03:30:24.066Z,8.90
2022-12-31T03:32:51.404Z,12.43
2022-12-31T03:35:20.649Z,10.13
2022-12-31T03:37:48.702Z,8.65
2022-12-31T03:40:16.523Z,10.13
2022-12-31T03:42:43.142Z,8.02
2022-12-31T03:45:11.489Z,8.05
2022-12-31T03:47:38.385Z,7.72
2022-12-31T03:50:06.632Z,8.68
2022-12-31T03:52:33.219Z,10.38
2022-12-31T03:54:59.751Z,8.10
2022-12-31T03:57:26.380Z,7.47
2022-12-31T03:59:52.938Z,8.82
2022-12-31T04:02:24.668Z,6.20
2022-12-31T04:04:54.897Z,7.13
2022-12-31T04:07:21.616Z,7.35
2022-12-31T04:09:48.183Z,7.93
2022-12-31T04:12:15.104Z,9.73
2022-12-31T04:14:41.667Z,8.05
2022-12-31T04:17:08.337Z,8.68
2022-12-31T04:19:34.926Z,8.50
2022-12-31T04:22:01.814Z,7.43
2022-12-31T04:24:28.461Z,7.57
2022-12-31T04:26:55.044Z,9.18
2022-12-31T04:29:21.607Z,7.32
2022-12-31T04:31:48.190Z,9.32
2022-12-31T04:34:14.917Z,7.50
2022-12-31T04:36:41.474Z,9.77
2022-12-31T04:39:08.313Z,9.05
2022-12-31T04:41:34.925Z,12.38
2022-12-31T04:44:01.649Z,10.18
2022-12-31T04:46:30.826Z,8.73
2022-12-31T04:48:58.196Z,9.77
2022-12-31T04:51:26.253Z,10.65
2022-12-31T04:53:53.037Z,11.40
2022-12-31T04:56:19.811Z,9.25
2022-12-31T04:58:46.656Z,7.75
2022-12-31T05:01:13.864Z,12.80
2022-12-31T05:03:41.016Z,8.98
2022-12-31T05:06:12.322Z,9.20
2022-12-31T05:08:38.948Z,8.52
2022-12-31T05:11:05.833Z,10.60
2022-12-31T05:13:33.497Z,9.68
2022-12-31T05:16:01.485Z,9.27
2022-12-31T05:18:28.728Z,6.70
2022-12-31T05:20:55.387Z,6.65
2022-12-31T05:23:22.912Z,10.45
2022-12-31T05:25:49.516Z,10.10
2022-12-31T05:28:16.496Z,9.18
2022-12-31T05:30:43.714Z,9.50
2022-12-31T05:33:10.519Z,8.48
2022-12-31T05:35:37.138Z,12.48
2022-12-31T05:38:03.828Z,13.05
2022-12-31T05:40:30.584Z,13.40
2022-12-31T05:42:57.097Z,11.55
2022-12-31T05:45:30.150Z,13.30
2022-12-31T05:47:57.831Z,16.45
2022-12-31T05:50:24.496Z,12.73
2022-12-31T05:52:51.063Z,13.75
2022-12-31T05:55:17.868Z,10.25
2022-12-31T05:57:44.399Z,14.52
2022-12-31T06:00:11.804Z,12.50
2022-12-31T06:02:38.476Z,10.77
2022-12-31T06:05:05.632Z,14.50
2022-12-31T06:07:32.316Z,14.55
2022-12-31T06:09:58.988Z,12.57
2022-12-31T06:12:25.610Z,8.82
2022-12-31T06:14:52.134Z,9.60
2022-12-31T06:17:19.133Z,10.90
2022-12-31T06:19:46.944Z,8.50
2022-12-31T06:22:13.551Z,9.07
2022-12-31T06:24:40.208Z,10.20
2022-12-31T06:27:06.749Z,11.45
2022-12-31T06:29:33.236Z,10.05
2022-12-31T06:31:59.887Z,10.60
2022-12-31T06:34:26.416Z,11.57
2022-12-31T06:36:52.907Z,11.90
2022-12-31T06:39:19.492Z,12.20
2022-12-31T06:41:46.057Z,9.95
2022-12-31T06:44:12.710Z,11.07
2022-12-31T06:46:39.567Z,8.00
2022-12-31T06:49:06.200Z,9.85
2022-12-31T06:51:32.743Z,10.07
2022-12-31T06:53:59.425Z,7.88
2022-12-31T06:56:33.892Z,8.32
2022-12-31T06:59:01.460Z,7.35
2022-12-31T07:01:51.255Z,10.70
2022-12-31T07:04:48.495Z,10.00
2022-12-31T07:07:35.373Z,8.70
2022-12-31T07:10:08.998Z,8.05
2022-12-31T07:12:58.936Z,7.10
2022-12-31T07:16:05.792Z,7.82
2022-12-31T07:18:54.975Z,6.78
2022-12-31T07:21:33.077Z,10.27
2022-12-31T07:23:59.936Z,7.32
2022-12-31T07:26:57.049Z,8.48
2022-12-31T07:29:48.398Z,6.78
2022-12-31T07:32:35.969Z,7.88
2022-12-31T07:35:37.188Z,6.57
2022-12-31T07:38:26.508Z,8.75
2022-12-31T07:41:15.755Z,8.13
2022-12-31T07:44:22.299Z,9.75
2022-12-31T07:46:57.619Z,9.65
2022-12-31T07:49:25.998Z,10.13
2022-12-31T07:51:53.446Z,8.75
2022-12-31T07:54:20.864Z,6.90
2022-12-31T07:56:48.017Z,7.05
2022-12-31T07:59:32.418Z,8.63
2022-12-31T08:02:06.220Z,8.50
2022-12-31T08:04:40.719Z,8.18
2022-12-31T08:07:30.085Z,5.88
2022-12-31T08:10:15.620Z,7.28
2022-12-31T08:12:47.251Z,4.43
2022-12-31T08:15:15.460Z,6.07
2022-12-31T08:17:42.844Z,5.63
2022-12-31T08:20:14.795Z,6.45
2022-12-31T08:23:00.143Z,6.50
2022-12-31T08:25:38.357Z,6.25
2022-12-31T08:28:14.001Z,5.38
2022-12-31T08:31:00.440Z,6.43
2022-12-31T08:33:37.983Z,5.00
2022-12-31T08:36:13.599Z,4.18
2022-12-31T08:39:07.945Z,8.25
2022-12-31T08:41:42.515Z,5.63
2022-12-31T08:44:57.382Z,9.43
2022-12-31T08:47:40.419Z,4.72
2022-12-31T08:50:12.937Z,4.43
2022-12-31T08:52:39.722Z,6.18
2022-12-31T08:55:06.843Z,4.45
2022-12-31T08:57:46.324Z,5.85
2022-12-31T09:00:18.235Z,6.05
2022-12-31T09:02:50.378Z,5.50
2022-12-31T09:05:25.408Z,5.20
2022-12-31T09:08:22.565Z,4.88
2022-12-31T09:11:10.443Z,4.45
2022-12-31T09:13:45.839Z,4.72
2022-12-31T09:16:28.441Z,3.50
2022-12-31T09:18:57.535Z,4.35
2022-12-31T09:21:24.137Z,6.30
2022-12-31T09:23:50.930Z,5.68
2022-12-31T09:26:43.033Z,4.47
2022-12-31T09:29:09.533Z,3.65
2022-12-31T09:31:45.043Z,3.88
2022-12-31T09:34:30.629Z,3.95
2022-12-31T09:37:02.548Z,6.75
2022-12-31T09:39:58.371Z,4.97
2022-12-31T09:45:34.679Z,3.05
2022-12-31T09:48:26.723Z,3.28
2022-12-31T09:51:19.181Z,7.65
2022-12-31T09:54:06.371Z,3.60
2022-12-31T09:56:42.371Z,4.53
2022-12-31T09:59:43.841Z,4.03
2022-12-31T10:02:29.608Z,2.50
2022-12-31T10:05:03.980Z,3.88
2022-12-31T10:07:40.397Z,2.25
2022-12-31T10:10:16.657Z,4.07
2022-12-31T10:13:01.919Z,2.83
2022-12-31T10:15:41.439Z,3.45
2022-12-31T10:18:16.726Z,3.53
2022-12-31T10:21:02.272Z,2.78
2022-12-31T10:23:48.641Z,1.83
2022-12-31T10:26:32.079Z,4.55
2022-12-31T10:29:13.903Z,3.03
2022-12-31T10:32:04.497Z,2.17
2022-12-31T10:34:55.087Z,2.90
2022-12-31T10:37:30.008Z,3.28
2022-12-31T10:40:34.750Z,4.00
2022-12-31T10:43:26.692Z,2.45
2022-12-31T10:46:24.169Z,2.45
2022-12-31T10:49:16.443Z,2.28
2022-12-31T10:52:04.661Z,2.17
2022-12-31T10:54:43.699Z,4.18
2022-12-31T10:57:34.314Z,3.58
2022-12-31T11:00:12.914Z,2.85
2022-12-31T11:02:42.574Z,2.42
2022-12-31T11:05:47.109Z,1.33
2022-12-31T11:08:39.949Z,2.33
2022-12-31T11:11:34.235Z,2.42
2022-12-31T11:14:26.992Z,2.28
2022-12-31T11:17:01.123Z,2.75
2022-12-31T11:19:39.855Z,2.78
2022-12-31T11:22:25.043Z,3.92
2022-12-31T11:25:17.427Z,2.72
2022-12-31T11:28:08.997Z,2.47
2022-12-31T11:30:57.294Z,4.20
2022-12-31T11:33:50.574Z,3.05
2022-12-31T11:36:36.081Z,2.13
2022-12-31T11:39:33.427Z,2.83
2022-12-31T11:42:20.772Z,1.67
2022-12-31T11:44:51.651Z,3.15
2022-12-31T11:47:44.719Z,1.92
2022-12-31T11:50:38.899Z,2.80
2022-12-31T11:53:33.542Z,3.08
2022-12-31T11:56:20.133Z,3.92
2022-12-31T11:58:52.953Z,1.70
2022-12-31T12:01:32.524Z,2.55
2022-12-31T12:03:59.861Z,3.00
2022-12-31T12:06:32.411Z,1.17
2022-12-31T12:09:05.568Z,2.55
2022-12-31T12:11:35.760Z,1.77
2022-12-31T12:14:19.098Z,3.22
2022-12-31T12:16:45.883Z,2.25
2022-12-31T12:19:18.443Z,1.65
2022-12-31T12:21:49.092Z,1.90
2022-12-31T12:26:57.504Z,3.42
2022-12-31T12:29:28.781Z,7.40
2022-12-31T12:32:19.578Z,2.45
2022-12-31T12:34:49.818Z,1.90
2022-12-31T12:40:03.472Z,3.22
2022-12-31T12:42:30.603Z,2.05
2022-12-31T12:45:18.940Z,2.38
2022-12-31T12:47:48.159Z,2.05
2022-12-31T12:50:24.847Z,2.85
2022-12-31T12:53:22.100Z,1.95
2022-12-31T12:56:02.936Z,1.42
2022-12-31T12:59:09.074Z,1.70
2022-12-31T13:01:52.614Z,1.90
2022-12-31T13:04:43.458Z,3.15
2022-12-31T13:07:36.779Z,2.00
2022-12-31T13:10:26.556Z,2.17
2022-12-31T13:13:25.937Z,1.92
2022-12-31T13:16:22.426Z,2.03
2022-12-31T13:19:09.256Z,2.25
2022-12-31T13:21:57.984Z,2.20
2022-12-31T13:24:51.788Z,3.17
2022-12-31T13:27:42.655Z,3.97
2022-12-31T13:30:40.284Z,1.73
2022-12-31T13:33:15.558Z,2.17
2022-12-31T13:35:48.102Z,2.65
2022-12-31T13:38:22.796Z,2.03
2022-12-31T13:40:51.959Z,1.95
2022-12-31T13:43:39.568Z,3.97
2022-12-31T13:46:19.196Z,3.13
2022-12-31T13:48:59.761Z,1.20
2022-12-31T13:51:41.916Z,4.30
2022-12-31T13:54:39.468Z,2.83
2022-12-31T13:57:18.966Z,3.08
2022-12-31T13:59:50.107Z,1.60
